sensor_id;sensor_type;location;lat;lon;timestamp;P1;durP1;ratioP1;P2;durP2;ratioP2
3571;SDS011;7958;53.024;12.970;2022-12-10T00:02:21;8.37;;;5.70;;
3571;SDS011;7958;53.024;12.970;2022-12-10T00:04:47;8.80;;;5.27;;
3571;SDS011;7958;53.024;12.970;2022-12-10T00:07:15;8.60;;;5.90;;
3571;SDS011;7958;53.024;12.970;2022-12-10T00:09:41;8.87;;;6.07;;
3571;SDS011;7958;53.024;12.970;2022-12-10T00:12:08;9.70;;;6.43;;
3571;SDS011;7958;53.024;12.970;2022-12-10T00:14:34;22.60;;;9.77;;
3571;SDS011;7958;53.024;12.970;2022-12-10T00:17:00;16.70;;;8.57;;
3571;SDS011;7958;53.024;12.970;2022-12-10T00:19:27;8.77;;;6.13;;
3571;SDS011;7958;53.024;12.970;2022-12-10T00:21:53;14.43;;;7.60;;
3571;SDS011;7958;53.024;12.970;2022-12-10T00:24:21;8.80;;;6.07;;
3571;SDS011;7958;53.024;12.970;2022-12-10T00:26:50;9.00;;;6.40;;
3571;SDS011;7958;53.024;12.970;2022-12-10T00:29:17;14.30;;;6.80;;
3571;SDS011;7958;53.024;12.970;2022-12-10T00:31:45;16.80;;;7.00;;
3571;SDS011;7958;53.024;12.970;2022-12-10T00:34:12;8.87;;;6.03;;
3571;SDS011;7958;53.024;12.970;2022-12-10T00:36:39;11.33;;;7.70;;
3571;SDS011;7958;53.024;12.970;2022-12-10T00:39:09;8.33;;;6.23;;
3571;SDS011;7958;53.024;12.970;2022-12-10T00:41:39;8.50;;;5.80;;
3571;SDS011;7958;53.024;12.970;2022-12-10T00:44:05;8.20;;;5.03;;
3571;SDS011;7958;53.024;12.970;2022-12-10T00:46:31;10.20;;;6.70;;
3571;SDS011;7958;53.024;12.970;2022-12-10T00:48:58;12.60;;;7.43;;
3571;SDS011;7958;53.024;12.970;2022-12-10T00:51:26;12.73;;;7.30;;
3571;SDS011;7958;53.024;12.970;2022-12-10T00:53:53;12.87;;;6.50;;
3571;SDS011;7958;53.024;12.970;2022-12-10T00:56:21;11.47;;;6.87;;
3571;SDS011;7958;53.024;12.970;2022-12-10T00:58:50;9.07;;;6.03;;
3571;SDS011;7958;53.024;12.970;2022-12-10T01:01:19;8.67;;;5.90;;
3571;SDS011;7958;53.024;12.970;2022-12-10T01:03:47;10.30;;;6.53;;
3571;SDS011;7958;53.024;12.970;2022-12-10T01:06:16;9.70;;;6.07;;
3571;SDS011;7958;53.024;12.970;2022-12-10T01:08:44;11.03;;;6.87;;
3571;SDS011;7958;53.024;12.970;2022-12-10T01:11:12;11.50;;;7.30;;
3571;SDS011;7958;53.024;12.970;2022-12-10T01:13:39;8.17;;;5.73;;
3571;SDS011;7958;53.024;12.970;2022-12-10T01:16:08;9.67;;;5.63;;
3571;SDS011;7958;53.024;12.970;2022-12-10T01:18:36;8.00;;;6.40;;
3571;SDS011;7958;53.024;12.970;2022-12-10T01:21:03;8.90;;;5.70;;
3571;SDS011;7958;53.024;12.970;2022-12-10T01:23:31;9.10;;;5.77;;
3571;SDS011;7958;53.024;12.970;2022-12-10T01:25:58;11.97;;;6.67;;
3571;SDS011;7958;53.024;12.970;2022-12-10T01:28:27;8.40;;;6.30;;
3571;SDS011;7958;53.024;12.970;2022-12-10T01:30:54;10.50;;;5.93;;
3571;SDS011;7958;53.024;12.970;2022-12-10T01:33:22;9.90;;;5.83;;
3571;SDS011;7958;53.024;12.970;2022-12-10T01:35:48;6.70;;;5.17;;
3571;SDS011;7958;53.024;12.970;2022-12-10T01:38:15;7.87;;;5.77;;
3571;SDS011;7958;53.024;12.970;2022-12-10T01:40:41;6.27;;;4.80;;
3571;SDS011;7958;53.024;12.970;2022-12-10T01:43:09;12.07;;;5.90;;
3571;SDS011;7958;53.024;12.970;2022-12-10T01:45:38;8.33;;;5.83;;
3571;SDS011;7958;53.024;12.970;2022-12-10T01:48:06;10.00;;;5.87;;
3571;SDS011;7958;53.024;12.970;2022-12-10T01:50:35;8.00;;;5.30;;
3571;SDS011;7958;53.024;12.970;2022-12-10T01:53:04;10.23;;;6.30;;
3571;SDS011;7958;53.024;12.970;2022-12-10T01:55:38;9.73;;;6.37;;
3571;SDS011;7958;53.024;12.970;2022-12-10T01:58:17;10.47;;;6.40;;
3571;SDS011;7958;53.024;12.970;2022-12-10T02:00:54;8.53;;;5.60;;
3571;SDS011;7958;53.024;12.970;2022-12-10T02:03:28;8.73;;;5.07;;
3571;SDS011;7958;53.024;12.970;2022-12-10T02:06:03;7.80;;;5.50;;
3571;SDS011;7958;53.024;12.970;2022-12-10T02:08:34;8.20;;;5.70;;
3571;SDS011;7958;53.024;12.970;2022-12-10T02:11:09;9.80;;;5.33;;
3571;SDS011;7958;53.024;12.970;2022-12-10T02:13:41;8.33;;;5.17;;
3571;SDS011;7958;53.024;12.970;2022-12-10T02:16:11;10.13;;;5.93;;
3571;SDS011;7958;53.024;12.970;2022-12-10T02:18:41;10.57;;;6.03;;
3571;SDS011;7958;53.024;12.970;2022-12-10T02:21:13;8.53;;;5.50;;
3571;SDS011;7958;53.024;12.970;2022-12-10T02:23:44;10.13;;;5.73;;
3571;SDS011;7958;53.024;12.970;2022-12-10T02:26:22;7.67;;;5.30;;
3571;SDS011;7958;53.024;12.970;2022-12-10T02:28:51;8.43;;;6.03;;
3571;SDS011;7958;53.024;12.970;2022-12-10T02:31:28;7.37;;;5.53;;
3571;SDS011;7958;53.024;12.970;2022-12-10T02:34:07;10.27;;;5.87;;
3571;SDS011;7958;53.024;12.970;2022-12-10T02:36:35;7.77;;;5.50;;
3571;SDS011;7958;53.024;12.970;2022-12-10T02:39:03;7.43;;;4.97;;
3571;SDS011;7958;53.024;12.970;2022-12-10T02:41:33;9.70;;;5.60;;
3571;SDS011;7958;53.024;12.970;2022-12-10T02:44:02;8.77;;;5.73;;
3571;SDS011;7958;53.024;12.970;2022-12-10T02:46:30;7.87;;;5.10;;
3571;SDS011;7958;53.024;12.970;2022-12-10T02:49:01;7.27;;;4.87;;
3571;SDS011;7958;53.024;12.970;2022-12-10T02:51:30;7.53;;;4.93;;
3571;SDS011;7958;53.024;12.970;2022-12-10T02:53:59;7.83;;;5.10;;
3571;SDS011;7958;53.024;12.970;2022-12-10T02:56:31;6.53;;;4.97;;
3571;SDS011;7958;53.024;12.970;2022-12-10T02:59:04;8.80;;;5.77;;
3571;SDS011;7958;53.024;12.970;2022-12-10T03:01:36;9.93;;;5.67;;
3571;SDS011;7958;53.024;12.970;2022-12-10T03:04:08;7.10;;;5.00;;
3571;SDS011;7958;53.024;12.970;2022-12-10T03:06:39;10.20;;;5.30;;
3571;SDS011;7958;53.024;12.970;2022-12-10T03:09:09;7.73;;;4.97;;
3571;SDS011;7958;53.024;12.970;2022-12-10T03:11:37;7.30;;;5.23;;
3571;SDS011;7958;53.024;12.970;2022-12-10T03:14:07;8.47;;;5.33;;
3571;SDS011;7958;53.024;12.970;2022-12-10T03:16:39;7.10;;;5.00;;
3571;SDS011;7958;53.024;12.970;2022-12-10T03:19:09;8.53;;;4.63;;
3571;SDS011;7958;53.024;12.970;2022-12-10T03:21:42;5.53;;;3.67;;
3571;SDS011;7958;53.024;12.970;2022-12-10T03:24:10;7.40;;;4.93;;
3571;SDS011;7958;53.024;12.970;2022-12-10T03:26:37;7.97;;;5.10;;
3571;SDS011;7958;53.024;12.970;2022-12-10T03:29:12;7.03;;;4.37;;
3571;SDS011;7958;53.024;12.970;2022-12-10T03:31:42;6.03;;;4.53;;
3571;SDS011;7958;53.024;12.970;2022-12-10T03:34:09;5.50;;;4.50;;
3571;SDS011;7958;53.024;12.970;2022-12-10T03:36:36;8.30;;;5.00;;
3571;SDS011;7958;53.024;12.970;2022-12-10T03:39:02;7.03;;;5.10;;
3571;SDS011;7958;53.024;12.970;2022-12-10T03:41:31;5.67;;;4.13;;
3571;SDS011;7958;53.024;12.970;2022-12-10T03:43:58;6.20;;;4.20;;
3571;SDS011;7958;53.024;12.970;2022-12-10T03:46:30;6.93;;;4.60;;
3571;SDS011;7958;53.024;12.970;2022-12-10T03:48:59;6.33;;;4.10;;
3571;SDS011;7958;53.024;12.970;2022-12-10T03:51:29;8.37;;;4.37;;
3571;SDS011;7958;53.024;12.970;2022-12-10T03:53:55;7.80;;;4.90;;
3571;SDS011;7958;53.024;12.970;2022-12-10T03:56:22;7.20;;;3.90;;
3571;SDS011;7958;53.024;12.970;2022-12-10T03:58:48;6.70;;;4.90;;
3571;SDS011;7958;53.024;12.970;2022-12-10T04:01:15;5.47;;;3.83;;
3571;SDS011;7958;53.024;12.970;2022-12-10T04:03:43;7.33;;;4.63;;
3571;SDS011;7958;53.024;12.970;2022-12-10T04:06:13;5.40;;;4.40;;
3571;SDS011;7958;53.024;12.970;2022-12-10T04:08:41;6.23;;;4.03;;
3571;SDS011;7958;53.024;12.970;2022-12-10T04:11:08;7.60;;;4.20;;
3571;SDS011;7958;53.024;12.970;2022-12-10T04:13:36;6.30;;;4.73;;
3571;SDS011;7958;53.024;12.970;2022-12-10T04:16:21;5.70;;;4.30;;
3571;SDS011;7958;53.024;12.970;2022-12-10T04:18:56;5.90;;;4.50;;
3571;SDS011;7958;53.024;12.970;2022-12-10T04:21:23;7.93;;;4.57;;
3571;SDS011;7958;53.024;12.970;2022-12-10T04:24:08;6.17;;;4.00;;
3571;SDS011;7958;53.024;12.970;2022-12-10T04:27:04;7.20;;;4.93;;
3571;SDS011;7958;53.024;12.970;2022-12-10T04:29:34;5.77;;;3.70;;
3571;SDS011;7958;53.024;12.970;2022-12-10T04:32:00;7.20;;;5.10;;
3571;SDS011;7958;53.024;12.970;2022-12-10T04:34:28;6.30;;;4.10;;
3571;SDS011;7958;53.024;12.970;2022-12-10T04:36:54;5.07;;;4.17;;
3571;SDS011;7958;53.024;12.970;2022-12-10T04:39:23;6.87;;;4.60;;
3571;SDS011;7958;53.024;12.970;2022-12-10T04:41:49;9.33;;;4.67;;
3571;SDS011;7958;53.024;12.970;2022-12-10T04:44:15;6.17;;;4.37;;
3571;SDS011;7958;53.024;12.970;2022-12-10T04:46:42;5.50;;;4.37;;
3571;SDS011;7958;53.024;12.970;2022-12-10T04:49:09;6.83;;;4.33;;
3571;SDS011;7958;53.024;12.970;2022-12-10T04:51:36;6.00;;;4.10;;
3571;SDS011;7958;53.024;12.970;2022-12-10T04:54:03;6.60;;;4.23;;
3571;SDS011;7958;53.024;12.970;2022-12-10T04:56:30;6.40;;;4.33;;
3571;SDS011;7958;53.024;12.970;2022-12-10T04:58:57;6.83;;;4.00;;
3571;SDS011;7958;53.024;12.970;2022-12-10T05:01:24;3.90;;;3.53;;
3571;SDS011;7958;53.024;12.970;2022-12-10T05:03:51;6.83;;;4.50;;
3571;SDS011;7958;53.024;12.970;2022-12-10T05:06:18;7.13;;;4.60;;
3571;SDS011;7958;53.024;12.970;2022-12-10T05:08:47;9.80;;;4.73;;
3571;SDS011;7958;53.024;12.970;2022-12-10T05:11:14;9.40;;;5.00;;
3571;SDS011;7958;53.024;12.970;2022-12-10T05:13:41;6.67;;;4.40;;
3571;SDS011;7958;53.024;12.970;2022-12-10T05:16:08;7.83;;;5.10;;
3571;SDS011;7958;53.024;12.970;2022-12-10T05:18:36;26.80;;;8.00;;
3571;SDS011;7958;53.024;12.970;2022-12-10T05:21:03;9.30;;;5.17;;
3571;SDS011;7958;53.024;12.970;2022-12-10T05:23:31;6.77;;;4.50;;
3571;SDS011;7958;53.024;12.970;2022-12-10T05:25:59;10.93;;;5.40;;
3571;SDS011;7958;53.024;12.970;2022-12-10T05:28:26;10.17;;;6.30;;
3571;SDS011;7958;53.024;12.970;2022-12-10T05:30:53;9.10;;;5.10;;
3571;SDS011;7958;53.024;12.970;2022-12-10T05:33:19;9.80;;;5.10;;
3571;SDS011;7958;53.024;12.970;2022-12-10T05:35:50;5.83;;;4.40;;
3571;SDS011;7958;53.024;12.970;2022-12-10T05:38:18;7.63;;;4.83;;
3571;SDS011;7958;53.024;12.970;2022-12-10T05:40:44;6.00;;;4.60;;
3571;SDS011;7958;53.024;12.970;2022-12-10T05:43:12;6.30;;;4.03;;
3571;SDS011;7958;53.024;12.970;2022-12-10T05:45:38;5.53;;;4.30;;
3571;SDS011;7958;53.024;12.970;2022-12-10T05:48:04;6.27;;;4.13;;
3571;SDS011;7958;53.024;12.970;2022-12-10T05:50:31;5.73;;;4.40;;
3571;SDS011;7958;53.024;12.970;2022-12-10T05:52:58;6.47;;;4.70;;
3571;SDS011;7958;53.024;12.970;2022-12-10T05:55:24;6.80;;;4.27;;
3571;SDS011;7958;53.024;12.970;2022-12-10T05:57:51;7.30;;;4.80;;
3571;SDS011;7958;53.024;12.970;2022-12-10T06:00:19;6.97;;;4.50;;
3571;SDS011;7958;53.024;12.970;2022-12-10T06:02:48;6.57;;;4.40;;
3571;SDS011;7958;53.024;12.970;2022-12-10T06:05:14;5.40;;;4.17;;
3571;SDS011;7958;53.024;12.970;2022-12-10T06:07:41;5.10;;;4.27;;
3571;SDS011;7958;53.024;12.970;2022-12-10T06:10:07;5.67;;;4.20;;
3571;SDS011;7958;53.024;12.970;2022-12-10T06:12:34;7.07;;;5.00;;
3571;SDS011;7958;53.024;12.970;2022-12-10T06:15:00;8.90;;;5.07;;
3571;SDS011;7958;53.024;12.970;2022-12-10T06:17:30;5.47;;;4.13;;
3571;SDS011;7958;53.024;12.970;2022-12-10T06:19:56;4.83;;;4.27;;
3571;SDS011;7958;53.024;12.970;2022-12-10T06:22:23;7.10;;;4.37;;
3571;SDS011;7958;53.024;12.970;2022-12-10T06:24:49;6.33;;;4.37;;
3571;SDS011;7958;53.024;12.970;2022-12-10T06:27:15;9.17;;;5.70;;
3571;SDS011;7958;53.024;12.970;2022-12-10T06:29:42;15.53;;;6.30;;
3571;SDS011;7958;53.024;12.970;2022-12-10T06:32:08;9.80;;;5.30;;
3571;SDS011;7958;53.024;12.970;2022-12-10T06:34:36;12.30;;;5.90;;
3571;SDS011;7958;53.024;12.970;2022-12-10T06:37:02;9.23;;;5.37;;
3571;SDS011;7958;53.024;12.970;2022-12-10T06:39:28;5.60;;;4.70;;
3571;SDS011;7958;53.024;12.970;2022-12-10T06:41:54;6.63;;;5.17;;
3571;SDS011;7958;53.024;12.970;2022-12-10T06:44:21;10.50;;;6.37;;
3571;SDS011;7958;53.024;12.970;2022-12-10T06:46:47;6.30;;;4.60;;
3571;SDS011;7958;53.024;12.970;2022-12-10T06:49:13;8.10;;;5.33;;
3571;SDS011;7958;53.024;12.970;2022-12-10T06:51:41;4.47;;;4.00;;
3571;SDS011;7958;53.024;12.970;2022-12-10T06:54:07;8.30;;;5.07;;
3571;SDS011;7958;53.024;12.970;2022-12-10T06:56:33;6.07;;;4.23;;
3571;SDS011;7958;53.024;12.970;2022-12-10T06:59:03;6.10;;;4.50;;
3571;SDS011;7958;53.024;12.970;2022-12-10T07:01:29;5.80;;;4.67;;
3571;SDS011;7958;53.024;12.970;2022-12-10T07:03:56;8.00;;;5.07;;
3571;SDS011;7958;53.024;12.970;2022-12-10T07:06:22;6.13;;;4.60;;
3571;SDS011;7958;53.024;12.970;2022-12-10T07:08:51;6.20;;;4.70;;
3571;SDS011;7958;53.024;12.970;2022-12-10T07:11:19;6.50;;;4.83;;
3571;SDS011;7958;53.024;12.970;2022-12-10T07:13:47;5.17;;;3.90;;
3571;SDS011;7958;53.024;12.970;2022-12-10T07:16:14;5.93;;;5.33;;
3571;SDS011;7958;53.024;12.970;2022-12-10T07:18:42;6.37;;;4.37;;
3571;SDS011;7958;53.024;12.970;2022-12-10T07:21:14;5.93;;;4.83;;
3571;SDS011;7958;53.024;12.970;2022-12-10T07:23:41;6.13;;;4.90;;
3571;SDS011;7958;53.024;12.970;2022-12-10T07:26:08;6.90;;;5.47;;
3571;SDS011;7958;53.024;12.970;2022-12-10T07:28:35;7.30;;;5.00;;
3571;SDS011;7958;53.024;12.970;2022-12-10T07:31:01;5.53;;;4.20;;
3571;SDS011;7958;53.024;12.970;2022-12-10T07:35:57;6.00;;;3.90;;
3571;SDS011;7958;53.024;12.970;2022-12-10T07:38:23;4.77;;;4.10;;
3571;SDS011;7958;53.024;12.970;2022-12-10T07:40:50;6.60;;;4.33;;
3571;SDS011;7958;53.024;12.970;2022-12-10T07:43:18;5.97;;;4.30;;
3571;SDS011;7958;53.024;12.970;2022-12-10T07:45:47;5.77;;;4.17;;
3571;SDS011;7958;53.024;12.970;2022-12-10T07:48:19;6.07;;;3.80;;
3571;SDS011;7958;53.024;12.970;2022-12-10T07:50:46;5.70;;;3.60;;
3571;SDS011;7958;53.024;12.970;2022-12-10T07:53:12;6.73;;;4.50;;
3571;SDS011;7958;53.024;12.970;2022-12-10T07:55:39;5.50;;;4.50;;
3571;SDS011;7958;53.024;12.970;2022-12-10T07:58:05;6.67;;;4.37;;
3571;SDS011;7958;53.024;12.970;2022-12-10T08:00:33;5.63;;;4.50;;
3571;SDS011;7958;53.024;12.970;2022-12-10T08:03:02;5.23;;;4.43;;
3571;SDS011;7958;53.024;12.970;2022-12-10T08:05:30;5.20;;;4.63;;
3571;SDS011;7958;53.024;12.970;2022-12-10T08:07:59;4.27;;;3.77;;
3571;SDS011;7958;53.024;12.970;2022-12-10T08:10:29;6.90;;;4.97;;
3571;SDS011;7958;53.024;12.970;2022-12-10T08:12:55;6.20;;;4.43;;
3571;SDS011;7958;53.024;12.970;2022-12-10T08:15:21;5.57;;;4.80;;
3571;SDS011;7958;53.024;12.970;2022-12-10T08:17:49;6.13;;;4.33;;
3571;SDS011;7958;53.024;12.970;2022-12-10T08:20:16;5.17;;;4.43;;
3571;SDS011;7958;53.024;12.970;2022-12-10T08:22:42;8.13;;;5.33;;
3571;SDS011;7958;53.024;12.970;2022-12-10T08:25:09;4.70;;;4.20;;
3571;SDS011;7958;53.024;12.970;2022-12-10T08:27:38;5.30;;;4.20;;
3571;SDS011;7958;53.024;12.970;2022-12-10T08:30:05;4.27;;;3.70;;
3571;SDS011;7958;53.024;12.970;2022-12-10T08:32:32;6.10;;;4.40;;
3571;SDS011;7958;53.024;12.970;2022-12-10T08:35:00;6.37;;;4.47;;
3571;SDS011;7958;53.024;12.970;2022-12-10T08:37:28;8.27;;;4.10;;
3571;SDS011;7958;53.024;12.970;2022-12-10T08:39:54;5.13;;;4.33;;
3571;SDS011;7958;53.024;12.970;2022-12-10T08:42:20;5.33;;;4.00;;
3571;SDS011;7958;53.024;12.970;2022-12-10T08:44:47;4.60;;;3.73;;
3571;SDS011;7958;53.024;12.970;2022-12-10T08:47:13;5.30;;;4.00;;
3571;SDS011;7958;53.024;12.970;2022-12-10T08:49:39;5.90;;;4.90;;
3571;SDS011;7958;53.024;12.970;2022-12-10T08:52:07;5.00;;;4.37;;
3571;SDS011;7958;53.024;12.970;2022-12-10T08:54:37;5.83;;;4.23;;
3571;SDS011;7958;53.024;12.970;2022-12-10T08:57:05;6.00;;;4.17;;
3571;SDS011;7958;53.024;12.970;2022-12-10T08:59:31;11.47;;;5.17;;
3571;SDS011;7958;53.024;12.970;2022-12-10T09:01:58;4.57;;;4.07;;
3571;SDS011;7958;53.024;12.970;2022-12-10T09:04:28;4.80;;;4.30;;
3571;SDS011;7958;53.024;12.970;2022-12-10T09:06:55;4.93;;;4.43;;
3571;SDS011;7958;53.024;12.970;2022-12-10T09:09:22;6.17;;;4.57;;
3571;SDS011;7958;53.024;12.970;2022-12-10T09:11:50;5.00;;;4.17;;
3571;SDS011;7958;53.024;12.970;2022-12-10T09:14:16;5.00;;;4.27;;
3571;SDS011;7958;53.024;12.970;2022-12-10T09:16:45;6.10;;;4.47;;
3571;SDS011;7958;53.024;12.970;2022-12-10T09:19:11;5.50;;;4.60;;
3571;SDS011;7958;53.024;12.970;2022-12-10T09:21:38;4.30;;;3.77;;
3571;SDS011;7958;53.024;12.970;2022-12-10T09:24:04;6.07;;;4.80;;
3571;SDS011;7958;53.024;12.970;2022-12-10T09:26:33;4.63;;;4.20;;
3571;SDS011;7958;53.024;12.970;2022-12-10T09:28:59;6.23;;;4.60;;
3571;SDS011;7958;53.024;12.970;2022-12-10T09:31:25;8.20;;;4.83;;
3571;SDS011;7958;53.024;12.970;2022-12-10T09:33:53;7.20;;;5.93;;
3571;SDS011;7958;53.024;12.970;2022-12-10T09:36:20;6.87;;;4.93;;
3571;SDS011;7958;53.024;12.970;2022-12-10T09:38:46;11.43;;;5.60;;
3571;SDS011;7958;53.024;12.970;2022-12-10T09:41:29;6.13;;;5.03;;
3571;SDS011;7958;53.024;12.970;2022-12-10T09:44:03;5.90;;;4.60;;
3571;SDS011;7958;53.024;12.970;2022-12-10T09:46:33;6.67;;;4.50;;
3571;SDS011;7958;53.024;12.970;2022-12-10T09:49:11;5.47;;;4.57;;
3571;SDS011;7958;53.024;12.970;2022-12-10T09:51:50;4.83;;;4.13;;
3571;SDS011;7958;53.024;12.970;2022-12-10T09:54:18;4.67;;;4.13;;
3571;SDS011;7958;53.024;12.970;2022-12-10T09:56:47;5.50;;;4.30;;
3571;SDS011;7958;53.024;12.970;2022-12-10T09:59:15;5.03;;;3.67;;
3571;SDS011;7958;53.024;12.970;2022-12-10T10:01:44;4.57;;;3.77;;
3571;SDS011;7958;53.024;12.970;2022-12-10T10:04:12;5.00;;;4.50;;
3571;SDS011;7958;53.024;12.970;2022-12-10T10:06:38;6.30;;;4.93;;
3571;SDS011;7958;53.024;12.970;2022-12-10T10:09:06;7.47;;;4.83;;
3571;SDS011;7958;53.024;12.970;2022-12-10T10:11:33;7.00;;;4.90;;
3571;SDS011;7958;53.024;12.970;2022-12-10T10:14:04;7.90;;;5.30;;
3571;SDS011;7958;53.024;12.970;2022-12-10T10:16:33;9.33;;;6.53;;
3571;SDS011;7958;53.024;12.970;2022-12-10T10:19:02;7.93;;;5.00;;
3571;SDS011;7958;53.024;12.970;2022-12-10T10:21:31;5.80;;;4.70;;
3571;SDS011;7958;53.024;12.970;2022-12-10T10:23:59;6.73;;;5.60;;
3571;SDS011;7958;53.024;12.970;2022-12-10T10:26:26;6.90;;;5.27;;
3571;SDS011;7958;53.024;12.970;2022-12-10T10:28:55;5.90;;;5.30;;
3571;SDS011;7958;53.024;12.970;2022-12-10T10:31:27;5.43;;;4.93;;
3571;SDS011;7958;53.024;12.970;2022-12-10T10:33:56;8.23;;;6.37;;
3571;SDS011;7958;53.024;12.970;2022-12-10T10:39:18;6.57;;;5.87;;
3571;SDS011;7958;53.024;12.970;2022-12-10T10:41:51;9.60;;;6.90;;
3571;SDS011;7958;53.024;12.970;2022-12-10T10:44:20;13.05;;;10.27;;
3571;SDS011;7958;53.024;12.970;2022-12-10T10:46:49;32.10;;;18.27;;
3571;SDS011;7958;53.024;12.970;2022-12-10T10:49:22;21.73;;;12.67;;
3571;SDS011;7958;53.024;12.970;2022-12-10T10:51:51;33.47;;;17.73;;
3571;SDS011;7958;53.024;12.970;2022-12-10T10:57:04;24.63;;;14.33;;
3571;SDS011;7958;53.024;12.970;2022-12-10T10:59:37;20.83;;;12.70;;
3571;SDS011;7958;53.024;12.970;2022-12-10T11:02:17;10.33;;;7.90;;
3571;SDS011;7958;53.024;12.970;2022-12-10T11:04:48;5.97;;;4.97;;
3571;SDS011;7958;53.024;12.970;2022-12-10T11:07:19;9.17;;;6.50;;
3571;SDS011;7958;53.024;12.970;2022-12-10T11:09:48;6.50;;;5.70;;
3571;SDS011;7958;53.024;12.970;2022-12-10T11:12:29;6.63;;;5.00;;
3571;SDS011;7958;53.024;12.970;2022-12-10T11:14:59;6.53;;;5.47;;
3571;SDS011;7958;53.024;12.970;2022-12-10T11:17:27;7.90;;;6.20;;
3571;SDS011;7958;53.024;12.970;2022-12-10T11:19:55;6.73;;;5.93;;
3571;SDS011;7958;53.024;12.970;2022-12-10T11:22:24;6.97;;;5.17;;
3571;SDS011;7958;53.024;12.970;2022-12-10T11:24:52;8.73;;;5.80;;
3571;SDS011;7958;53.024;12.970;2022-12-10T11:30:04;5.13;;;4.23;;
3571;SDS011;7958;53.024;12.970;2022-12-10T11:32:50;4.97;;;4.40;;
3571;SDS011;7958;53.024;12.970;2022-12-10T11:35:35;8.23;;;4.40;;
3571;SDS011;7958;53.024;12.970;2022-12-10T11:38:10;7.77;;;4.73;;
3571;SDS011;7958;53.024;12.970;2022-12-10T11:40:45;7.33;;;5.27;;
3571;SDS011;7958;53.024;12.970;2022-12-10T11:43:20;5.90;;;4.70;;
3571;SDS011;7958;53.024;12.970;2022-12-10T11:45:57;4.40;;;3.60;;
3571;SDS011;7958;53.024;12.970;2022-12-10T11:48:38;7.37;;;4.30;;
3571;SDS011;7958;53.024;12.970;2022-12-10T11:51:15;5.57;;;3.83;;
3571;SDS011;7958;53.024;12.970;2022-12-10T11:53:49;5.20;;;4.00;;
3571;SDS011;7958;53.024;12.970;2022-12-10T11:56:21;4.10;;;3.60;;
3571;SDS011;7958;53.024;12.970;2022-12-10T11:58:56;6.17;;;3.93;;
3571;SDS011;7958;53.024;12.970;2022-12-10T12:01:50;6.53;;;4.07;;
3571;SDS011;7958;53.024;12.970;2022-12-10T12:04:30;7.43;;;4.70;;
3571;SDS011;7958;53.024;12.970;2022-12-10T12:07:05;5.73;;;4.30;;
3571;SDS011;7958;53.024;12.970;2022-12-10T12:09:43;5.33;;;4.07;;
3571;SDS011;7958;53.024;12.970;2022-12-10T12:12:23;4.40;;;3.87;;
3571;SDS011;7958;53.024;12.970;2022-12-10T12:14:55;5.63;;;4.17;;
3571;SDS011;7958;53.024;12.970;2022-12-10T12:17:23;5.83;;;4.17;;
3571;SDS011;7958;53.024;12.970;2022-12-10T12:19:57;4.07;;;3.40;;
3571;SDS011;7958;53.024;12.970;2022-12-10T12:22:26;6.13;;;4.30;;
3571;SDS011;7958;53.024;12.970;2022-12-10T12:24:54;6.33;;;4.63;;
3571;SDS011;7958;53.024;12.970;2022-12-10T12:27:25;6.00;;;4.20;;
3571;SDS011;7958;53.024;12.970;2022-12-10T12:29:57;9.00;;;4.30;;
3571;SDS011;7958;53.024;12.970;2022-12-10T12:32:29;4.40;;;4.00;;
3571;SDS011;7958;53.024;12.970;2022-12-10T12:35:00;6.07;;;3.60;;
3571;SDS011;7958;53.024;12.970;2022-12-10T12:37:30;6.80;;;4.10;;
3571;SDS011;7958;53.024;12.970;2022-12-10T12:40:00;4.43;;;4.00;;
3571;SDS011;7958;53.024;12.970;2022-12-10T12:42:30;5.20;;;4.10;;
3571;SDS011;7958;53.024;12.970;2022-12-10T12:45:03;5.10;;;4.27;;
3571;SDS011;7958;53.024;12.970;2022-12-10T12:47:37;6.87;;;4.40;;
3571;SDS011;7958;53.024;12.970;2022-12-10T12:50:13;5.10;;;4.33;;
3571;SDS011;7958;53.024;12.970;2022-12-10T12:52:48;7.50;;;4.60;;
3571;SDS011;7958;53.024;12.970;2022-12-10T12:55:19;6.00;;;4.73;;
3571;SDS011;7958;53.024;12.970;2022-12-10T12:57:50;6.03;;;4.20;;
3571;SDS011;7958;53.024;12.970;2022-12-10T13:00:35;6.97;;;4.47;;
3571;SDS011;7958;53.024;12.970;2022-12-10T13:03:07;7.43;;;5.33;;
3571;SDS011;7958;53.024;12.970;2022-12-10T13:05:36;6.43;;;4.80;;
3571;SDS011;7958;53.024;12.970;2022-12-10T13:08:15;8.00;;;5.10;;
3571;SDS011;7958;53.024;12.970;2022-12-10T13:10:52;9.00;;;5.40;;
3571;SDS011;7958;53.024;12.970;2022-12-10T13:13:23;9.30;;;5.57;;
3571;SDS011;7958;53.024;12.970;2022-12-10T13:15:51;8.13;;;5.00;;
3571;SDS011;7958;53.024;12.970;2022-12-10T13:18:19;27.47;;;12.00;;
3571;SDS011;7958;53.024;12.970;2022-12-10T13:20:51;60.47;;;25.30;;
3571;SDS011;7958;53.024;12.970;2022-12-10T13:23:29;39.93;;;18.10;;
3571;SDS011;7958;53.024;12.970;2022-12-10T13:26:00;25.63;;;13.40;;
3571;SDS011;7958;53.024;12.970;2022-12-10T13:28:39;10.03;;;6.43;;
3571;SDS011;7958;53.024;12.970;2022-12-10T13:31:19;11.03;;;7.67;;
3571;SDS011;7958;53.024;12.970;2022-12-10T13:34:06;12.73;;;7.70;;
3571;SDS011;7958;53.024;12.970;2022-12-10T13:37:14;15.60;;;7.07;;
3571;SDS011;7958;53.024;12.970;2022-12-10T13:39:48;7.20;;;5.20;;
3571;SDS011;7958;53.024;12.970;2022-12-10T13:42:30;7.97;;;6.27;;
3571;SDS011;7958;53.024;12.970;2022-12-10T13:45:26;10.83;;;6.17;;
3571;SDS011;7958;53.024;12.970;2022-12-10T13:47:55;9.77;;;6.00;;
3571;SDS011;7958;53.024;12.970;2022-12-10T13:50:43;6.90;;;5.10;;
3571;SDS011;7958;53.024;12.970;2022-12-10T13:53:16;8.90;;;5.80;;
3571;SDS011;7958;53.024;12.970;2022-12-10T13:55:49;7.70;;;5.53;;
3571;SDS011;7958;53.024;12.970;2022-12-10T13:58:26;8.57;;;5.63;;
3571;SDS011;7958;53.024;12.970;2022-12-10T14:01:00;11.37;;;6.37;;
3571;SDS011;7958;53.024;12.970;2022-12-10T14:03:44;8.57;;;6.03;;
3571;SDS011;7958;53.024;12.970;2022-12-10T14:06:17;11.43;;;6.30;;
3571;SDS011;7958;53.024;12.970;2022-12-10T14:08:56;9.80;;;7.03;;
3571;SDS011;7958;53.024;12.970;2022-12-10T14:11:28;10.10;;;6.70;;
3571;SDS011;7958;53.024;12.970;2022-12-10T14:13:58;14.00;;;6.57;;
3571;SDS011;7958;53.024;12.970;2022-12-10T14:16:27;11.07;;;6.20;;
3571;SDS011;7958;53.024;12.970;2022-12-10T14:18:55;10.30;;;6.57;;
3571;SDS011;7958;53.024;12.970;2022-12-10T14:21:24;9.03;;;6.70;;
3571;SDS011;7958;53.024;12.970;2022-12-10T14:24:02;10.17;;;6.27;;
3571;SDS011;7958;53.024;12.970;2022-12-10T14:26:30;9.10;;;6.57;;
3571;SDS011;7958;53.024;12.970;2022-12-10T14:28:59;10.70;;;6.80;;
3571;SDS011;7958;53.024;12.970;2022-12-10T14:31:28;11.53;;;6.40;;
3571;SDS011;7958;53.024;12.970;2022-12-10T14:33:57;8.87;;;5.80;;
3571;SDS011;7958;53.024;12.970;2022-12-10T14:36:28;11.27;;;6.70;;
3571;SDS011;7958;53.024;12.970;2022-12-10T14:38:56;13.53;;;7.20;;
3571;SDS011;7958;53.024;12.970;2022-12-10T14:41:27;16.83;;;7.70;;
3571;SDS011;7958;53.024;12.970;2022-12-10T14:43:55;10.87;;;6.43;;
3571;SDS011;7958;53.024;12.970;2022-12-10T14:46:27;10.27;;;6.20;;
3571;SDS011;7958;53.024;12.970;2022-12-10T14:48:54;15.23;;;7.67;;
3571;SDS011;7958;53.024;12.970;2022-12-10T14:51:21;13.83;;;7.07;;
3571;SDS011;7958;53.024;12.970;2022-12-10T14:53:50;12.53;;;7.20;;
3571;SDS011;7958;53.024;12.970;2022-12-10T14:56:21;16.03;;;7.70;;
3571;SDS011;7958;53.024;12.970;2022-12-10T14:58:57;13.93;;;7.97;;
3571;SDS011;7958;53.024;12.970;2022-12-10T15:01:29;13.90;;;7.87;;
3571;SDS011;7958;53.024;12.970;2022-12-10T15:03:58;22.40;;;11.20;;
3571;SDS011;7958;53.024;12.970;2022-12-10T15:06:25;21.17;;;9.60;;
3571;SDS011;7958;53.024;12.970;2022-12-10T15:08:53;13.13;;;8.00;;
3571;SDS011;7958;53.024;12.970;2022-12-10T15:11:30;12.40;;;8.07;;
3571;SDS011;7958;53.024;12.970;2022-12-10T15:13:57;12.93;;;8.37;;
3571;SDS011;7958;53.024;12.970;2022-12-10T15:16:29;17.80;;;9.63;;
3571;SDS011;7958;53.024;12.970;2022-12-10T15:19:07;16.37;;;7.97;;
3571;SDS011;7958;53.024;12.970;2022-12-10T15:21:40;10.87;;;6.80;;
3571;SDS011;7958;53.024;12.970;2022-12-10T15:24:07;11.60;;;7.27;;
3571;SDS011;7958;53.024;12.970;2022-12-10T15:26:41;13.70;;;7.93;;